createdAt,value
2023-03-20T00:04:45.425Z,1.40
2023-03-20T00:09:49.396Z,1.55
2023-03-20T00:14:53.426Z,1.33
2023-03-20T00:19:56.033Z,1.45
2023-03-20T00:24:58.601Z,2.28
2023-03-20T00:30:02.714Z,2.00
2023-03-20T00:35:16.237Z,2.10
2023-03-20T00:40:19.040Z,1.88
2023-03-20T00:45:22.909Z,1.90
2023-03-20T00:50:27.081Z,1.73
2023-03-20T00:55:30.259Z,1.70
2023-03-20T01:00:38.278Z,2.33
2023-03-20T01:05:41.272Z,2.80
2023-03-20T01:10:45.180Z,2.50
2023-03-20T01:15:49.351Z,2.90
2023-03-20T01:20:52.845Z,2.60
2023-03-20T01:25:55.407Z,2.60
2023-03-20T01:31:00.109Z,2.97
2023-03-20T01:36:03.277Z,3.15
2023-03-20T01:41:07.744Z,3.20
2023-03-20T01:46:19.386Z,3.30
2023-03-20T01:51:24.934Z,2.90
2023-03-20T01:56:31.490Z,2.50
2023-03-20T02:01:37.616Z,3.03
2023-03-20T02:06:41.724Z,3.05
2023-03-20T02:11:52.248Z,2.70
2023-03-20T02:16:57.275Z,3.28
2023-03-20T02:22:27.037Z,3.05
2023-03-20T02:27:33.576Z,3.50
2023-03-20T02:33:03.359Z,3.05
2023-03-20T02:38:27.258Z,2.78
2023-03-20T02:43:37.339Z,3.40
2023-03-20T02:48:47.385Z,2.97
2023-03-20T02:53:53.685Z,3.10
2023-03-20T02:59:02.869Z,2.97
2023-03-20T03:04:07.744Z,2.60
2023-03-20T03:09:14.888Z,3.13
2023-03-20T03:14:20.884Z,2.72
2023-03-20T03:19:25.091Z,2.75
2023-03-20T03:24:40.367Z,3.03
2023-03-20T03:29:48.567Z,2.45
2023-03-20T03:34:51.335Z,2.70
2023-03-20T03:39:55.986Z,2.45
2023-03-20T03:45:01.385Z,2.58
2023-03-20T03:50:05.789Z,2.47
2023-03-20T03:55:12.044Z,2.40
2023-03-20T04:00:35.469Z,2.30
2023-03-20T04:05:42.153Z,2.63
2023-03-20T04:10:44.791Z,2.35
2023-03-20T04:15:48.708Z,2.80
2023-03-20T04:20:51.914Z,2.70
2023-03-20T04:25:54.545Z,2.30
2023-03-20T04:31:00.809Z,2.20
2023-03-20T04:36:21.965Z,2.40
2023-03-20T04:41:27.390Z,2.45
2023-03-20T04:46:34.299Z,2.13
2023-03-20T04:51:40.492Z,3.15
2023-03-20T04:56:46.655Z,2.90
2023-03-20T05:01:54.080Z,2.63
2023-03-20T05:06:58.582Z,2.50
2023-03-20T05:12:09.594Z,2.63
2023-03-20T05:17:36.485Z,2.88
2023-03-20T05:22:57.756Z,2.80
2023-03-20T05:28:18.462Z,3.05
2023-03-20T05:33:42.704Z,2.80
2023-03-20T05:38:59.044Z,2.58
2023-03-20T05:44:16.759Z,2.80
2023-03-20T05:49:23.457Z,2.78
2023-03-20T05:54:41.437Z,3.05
2023-03-20T05:59:53.766Z,2.90
2023-03-20T06:05:23.679Z,2.75
2023-03-20T06:10:30.028Z,2.95
2023-03-20T06:15:33.591Z,3.30
2023-03-20T06:20:47.945Z,3.30
2023-03-20T06:25:50.706Z,2.75
2023-03-20T06:30:55.510Z,3.17
2023-03-20T06:36:00.797Z,3.40
2023-03-20T06:41:06.984Z,3.85
2023-03-20T06:46:10.859Z,3.40
2023-03-20T06:51:15.583Z,3.03
2023-03-20T06:56:26.351Z,3.03
2023-03-20T07:01:28.984Z,2.67
2023-03-20T07:06:33.552Z,2.92
2023-03-20T07:11:36.396Z,3.60
2023-03-20T07:16:39.090Z,3.90
2023-03-20T07:21:43.332Z,3.10
2023-03-20T07:26:47.018Z,3.40
2023-03-20T07:31:50.183Z,3.00
2023-03-20T07:37:01.534Z,3.05
2023-03-20T07:42:07.227Z,3.10
2023-03-20T07:47:32.745Z,3.13
2023-03-20T07:52:36.647Z,3.67
2023-03-20T07:57:39.274Z,3.70
2023-03-20T08:02:41.899Z,4.90
2023-03-20T08:07:46.107Z,5.40
2023-03-20T08:12:48.867Z,5.82
2023-03-20T08:17:51.436Z,6.40
2023-03-20T08:22:55.432Z,6.80
2023-03-20T08:27:58.013Z,5.93
2023-03-20T08:33:00.723Z,7.70
2023-03-20T08:38:04.788Z,14.10
2023-03-20T08:43:07.451Z,15.52
2023-03-20T08:48:10.032Z,16.98
2023-03-20T08:53:13.988Z,17.92
2023-03-20T08:58:16.675Z,17.65
2023-03-20T09:03:21.029Z,19.15
2023-03-20T09:08:25.145Z,17.38
2023-03-20T09:13:28.148Z,14.93
2023-03-20T09:18:30.745Z,18.48
2023-03-20T09:23:34.889Z,17.70
2023-03-20T09:28:37.645Z,16.33
2023-03-20T09:33:40.588Z,18.33
2023-03-20T09:38:44.606Z,16.73
2023-03-20T09:43:50.938Z,16.67
2023-03-20T09:48:57.165Z,17.70
2023-03-20T09:54:03.581Z,17.75
2023-03-20T09:59:07.603Z,15.90
2023-03-20T10:04:10.993Z,16.50
2023-03-20T10:09:17.624Z,18.17
2023-03-20T10:14:26.036Z,17.35
2023-03-20T10:19:29.758Z,17.45
2023-03-20T10:24:36.284Z,18.20
2023-03-20T10:29:44.383Z,17.38
2023-03-20T10:34:55.426Z,18.05
2023-03-20T10:40:05.566Z,16.58
2023-03-20T10:45:12.491Z,16.70
2023-03-20T10:50:17.884Z,15.93
2023-03-20T10:55:22.992Z,15.93
2023-03-20T11:00:27.051Z,15.93
2023-03-20T11:05:31.599Z,16.30
2023-03-20T11:10:36.876Z,16.85
2023-03-20T11:15:39.739Z,16.17
2023-03-20T11:20:45.775Z,15.35
2023-03-20T11:25:51.530Z,16.13
2023-03-20T11:31:04.957Z,17.52
2023-03-20T11:36:12.860Z,17.63
2023-03-20T11:41:23.706Z,17.23
2023-03-20T11:46:26.464Z,16.35
2023-03-20T11:51:29.068Z,17.40
2023-03-20T11:56:33.795Z,18.17
2023-03-20T12:01:44.607Z,18.58
2023-03-20T12:06:49.168Z,16.65
2023-03-20T12:11:54.517Z,18.58
2023-03-20T12:17:02.890Z,17.20
2023-03-20T12:22:13.073Z,16.80
2023-03-20T12:27:19.634Z,17.92
2023-03-20T12:32:25.195Z,16.10
2023-03-20T12:37:28.038Z,17.65
2023-03-20T12:42:40.093Z,24.02
2023-03-20T12:48:03.778Z,17.75
2023-03-20T12:53:22.704Z,18.25
2023-03-20T12:58:32.911Z,19.08
2023-03-20T13:03:46.717Z,17.70
2023-03-20T13:09:04.136Z,16.73
2023-03-20T13:14:13.724Z,18.05
2023-03-20T13:19:22.699Z,18.95
2023-03-20T13:24:34.248Z,16.75
2023-03-20T13:29:42.969Z,16.27
2023-03-20T13:34:57.685Z,17.83
2023-03-20T13:40:04.435Z,17.02
2023-03-20T13:45:14.429Z,16.85
2023-03-20T13:50:27.200Z,16.25
2023-03-20T13:55:34.013Z,15.30
2023-03-20T14:00:40.704Z,14.55
2023-03-20T14:05:44.015Z,14.20
2023-03-20T14:10:46.740Z,14.88
2023-03-20T14:15:53.922Z,14.32
2023-03-20T14:21:00.709Z,12.48
2023-03-20T14:26:06.124Z,12.90
2023-03-20T14:31:23.439Z,11.20
2023-03-20T14:36:28.456Z,11.52
2023-03-20T14:41:36.156Z,10.75
2023-03-20T14:46:47.351Z,10.57
2023-03-20T14:51:52.257Z,9.80
2023-03-20T14:56:55.525Z,10.18
2023-03-20T15:02:01.202Z,12.55
2023-03-20T15:07:05.896Z,11.55
2023-03-20T15:12:08.622Z,10.82
2023-03-20T15:17:18.482Z,13.80
2023-03-20T15:22:21.936Z,14.13
2023-03-20T15:27:29.412Z,13.85
2023-03-20T15:32:35.543Z,14.00
2023-03-20T15:37:38.359Z,12.10
2023-03-20T15:42:41.093Z,10.45
2023-03-20T15:47:45.324Z,9.73
2023-03-20T15:52:52.834Z,10.20
2023-03-20T15:57:57.425Z,10.25
2023-03-20T16:03:02.167Z,9.77
2023-03-20T16:08:12.830Z,10.23
2023-03-20T16:13:17.274Z,10.27
2023-03-20T16:18:22.108Z,9.55
2023-03-20T16:23:31.110Z,9.60
2023-03-20T16:28:36.920Z,8.00
2023-03-20T16:33:41.919Z,7.53
2023-03-20T16:38:54.542Z,7.00
2023-03-20T16:43:57.907Z,7.07
2023-03-20T16:49:10.416Z,6.47
2023-03-20T16:54:19.795Z,6.75
2023-03-20T16:59:22.884Z,6.32
2023-03-20T17:04:29.412Z,6.60
2023-03-20T17:09:32.533Z,7.53
2023-03-20T17:14:35.080Z,8.00
2023-03-20T17:19:39.030Z,7.07
2023-03-20T17:24:41.641Z,7.35
2023-03-20T17:29:44.244Z,7.32
2023-03-20T17:34:48.197Z,6.60
2023-03-20T17:39:50.723Z,6.75
2023-03-20T17:44:54.010Z,5.90
2023-03-20T17:49:58.094Z,6.03
2023-03-20T17:55:00.833Z,6.15
2023-03-20T18:00:06.467Z,6.70
2023-03-20T18:05:11.903Z,6.05
2023-03-20T18:10:19.563Z,6.53
2023-03-20T18:15:22.437Z,6.82
2023-03-20T18:20:27.388Z,6.80
2023-03-20T18:25:30.132Z,6.25
2023-03-20T18:30:34.981Z,5.93
2023-03-20T18:35:39.087Z,7.22
2023-03-20T18:40:42.554Z,7.90
2023-03-20T18:45:45.169Z,7.55
2023-03-20T18:50:50.982Z,7.80
2023-03-20T18:55:53.756Z,7.93
2023-03-20T19:00:57.709Z,8.10
2023-03-20T19:06:01.665Z,8.75
2023-03-20T19:11:04.420Z,8.95
2023-03-20T19:16:15.011Z,8.90
2023-03-20T19:21:19.523Z,8.80
2023-03-20T19:26:24.418Z,9.15
2023-03-20T19:31:27.450Z,8.50
2023-03-20T19:36:32.308Z,9.38
2023-03-20T19:41:35.403Z,8.40
2023-03-20T19:46:40.791Z,8.45
2023-03-20T19:51:46.081Z,8.45
2023-03-20T19:56:48.709Z,8.85
2023-03-20T20:01:52.345Z,10.00
2023-03-20T20:07:17.609Z,10.02
2023-03-20T20:12:19.037Z,10.00
2023-03-20T20:17:21.613Z,10.30
2023-03-20T20:22:27.138Z,9.63
2023-03-20T20:27:31.482Z,10.20
2023-03-20T20:32:35.840Z,10.68
2023-03-20T20:43:10.144Z,9.13
2023-03-20T20:48:13.463Z,9.80
2023-03-20T20:53:17.742Z,8.90
2023-03-20T20:58:20.484Z,11.27
2023-03-20T21:03:23.084Z,10.52
2023-03-20T21:08:27.041Z,9.20
2023-03-20T21:13:29.701Z,9.18
2023-03-20T21:18:32.393Z,9.43
2023-03-20T21:23:36.570Z,8.30
2023-03-20T21:28:39.211Z,10.70
2023-03-20T21:33:41.802Z,9.05
2023-03-20T21:44:16.676Z,8.95
2023-03-20T21:55:22.309Z,9.95
2023-03-20T22:06:23.734Z,9.98
2023-03-20T22:11:45.048Z,10.75
2023-03-20T22:17:10.188Z,10.07
2023-03-20T22:22:22.980Z,10.90
2023-03-20T22:48:36.626Z,11.05
2023-03-20T22:53:39.198Z,12.00
2023-03-20T22:58:43.286Z,11.95
2023-03-20T23:03:45.835Z,11.60
2023-03-20T23:08:54.589Z,11.68
2023-03-20T23:14:00.954Z,12.95
2023-03-20T23:19:03.653Z,12.25
2023-03-20T23:24:06.369Z,13.23
2023-03-20T23:29:10.273Z,13.82
2023-03-20T23:34:12.811Z,12.60
2023-03-20T23:39:15.642Z,14.82
2023-03-20T23:44:19.536Z,13.73
2023-03-20T23:49:22.473Z,13.57
2023-03-20T23:54:25.283Z,15.93
2023-03-20T23:59:29.690Z,14.35
